Terminal Aerodrome Forecast
Issued by NWS

Home | Current Version | Previous Version | Graphics & Text | Print | Product List | Glossary On
Versions: 1 2 3 4 5 6 7 8 9 10 11 12 13
000
FTUS42 KMHX 140522
TAFOAJ
TAF
KOAJ 140522Z 1406/1506 01007KT P6SM FEW050
     FM141400 01010G16KT P6SM SKC
     FM142300 02005KT P6SM SKC
      AMD LTD TO CLD VIS AND WIND=

USA.gov is the U.S. government's official web portal to all federal, state and local government web resources and services.